sensor_id;sensor_type;location;lat;lon;timestamp;temperature;humidity
17994;DHT22;9122;48.406;9.984;2023-09-18T00:01:41;21.90;99.90
17994;DHT22;9122;48.406;9.984;2023-09-18T00:04:25;21.80;90.20
17994;DHT22;9122;48.406;9.984;2023-09-18T00:07:10;21.80;90.20
17994;DHT22;9122;48.406;9.984;2023-09-18T00:09:55;21.80;90.50
17994;DHT22;9122;48.406;9.984;2023-09-18T00:12:40;21.80;99.90
17994;DHT22;9122;48.406;9.984;2023-09-18T00:15:24;20.50;99.90
17994;DHT22;9122;48.406;9.984;2023-09-18T00:18:09;21.70;90.50
17994;DHT22;9122;48.406;9.984;2023-09-18T00:20:53;21.70;99.90
17994;DHT22;9122;48.406;9.984;2023-09-18T00:23:38;21.60;90.70
17994;DHT22;9122;48.406;9.984;2023-09-18T00:26:23;21.60;90.60
17994;DHT22;9122;48.406;9.984;2023-09-18T00:29:07;21.60;90.70
17994;DHT22;9122;48.406;9.984;2023-09-18T00:31:52;21.60;90.60
17994;DHT22;9122;48.406;9.984;2023-09-18T00:34:36;21.50;99.90
17994;DHT22;9122;48.406;9.984;2023-09-18T00:37:20;21.50;99.90
17994;DHT22;9122;48.406;9.984;2023-09-18T00:40:05;21.50;90.80
17994;DHT22;9122;48.406;9.984;2023-09-18T00:42:50;21.50;90.80
17994;DHT22;9122;48.406;9.984;2023-09-18T00:45:34;21.40;99.90
17994;DHT22;9122;48.406;9.984;2023-09-18T00:48:20;21.40;91.00
17994;DHT22;9122;48.406;9.984;2023-09-18T00:51:05;21.30;91.00
17994;DHT22;9122;48.406;9.984;2023-09-18T00:53:50;21.30;91.20
17994;DHT22;9122;48.406;9.984;2023-09-18T00:56:34;21.30;91.00
17994;DHT22;9122;48.406;9.984;2023-09-18T00:59:20;21.10;99.90
17994;DHT22;9122;48.406;9.984;2023-09-18T01:02:05;21.20;91.00
17994;DHT22;9122;48.406;9.984;2023-09-18T01:04:49;21.20;91.30
17994;DHT22;9122;48.406;9.984;2023-09-18T01:07:34;21.20;91.30
17994;DHT22;9122;48.406;9.984;2023-09-18T01:10:19;21.10;99.90
17994;DHT22;9122;48.406;9.984;2023-09-18T01:13:14;21.10;99.90
17994;DHT22;9122;48.406;9.984;2023-09-18T01:16:10;21.10;91.70
17994;DHT22;9122;48.406;9.984;2023-09-18T01:18:56;21.10;91.50
17994;DHT22;9122;48.406;9.984;2023-09-18T01:21:40;21.10;91.30
17994;DHT22;9122;48.406;9.984;2023-09-18T01:24:24;21.00;91.50
17994;DHT22;9122;48.406;9.984;2023-09-18T01:27:11;21.00;91.40
17994;DHT22;9122;48.406;9.984;2023-09-18T01:29:57;21.00;99.90
17994;DHT22;9122;48.406;9.984;2023-09-18T01:32:42;20.90;91.70
17994;DHT22;9122;48.406;9.984;2023-09-18T01:35:27;20.90;92.00
17994;DHT22;9122;48.406;9.984;2023-09-18T01:38:13;20.90;91.80
17994;DHT22;9122;48.406;9.984;2023-09-18T01:40:58;20.90;91.90
17994;DHT22;9122;48.406;9.984;2023-09-18T01:43:43;20.80;92.10
17994;DHT22;9122;48.406;9.984;2023-09-18T01:46:28;20.80;92.10
17994;DHT22;9122;48.406;9.984;2023-09-18T01:49:12;20.80;92.10
17994;DHT22;9122;48.406;9.984;2023-09-18T01:51:57;20.70;99.90
17994;DHT22;9122;48.406;9.984;2023-09-18T01:54:41;20.70;92.20
17994;DHT22;9122;48.406;9.984;2023-09-18T01:57:25;20.70;92.00
17994;DHT22;9122;48.406;9.984;2023-09-18T02:00:10;20.70;92.10
17994;DHT22;9122;48.406;9.984;2023-09-18T02:02:56;20.70;92.10
17994;DHT22;9122;48.406;9.984;2023-09-18T02:05:40;20.70;92.10
17994;DHT22;9122;48.406;9.984;2023-09-18T02:08:28;20.70;92.40
17994;DHT22;9122;48.406;9.984;2023-09-18T02:11:12;20.70;92.20
17994;DHT22;9122;48.406;9.984;2023-09-18T02:13:56;20.70;92.30
17994;DHT22;9122;48.406;9.984;2023-09-18T02:16:42;20.70;92.30
17994;DHT22;9122;48.406;9.984;2023-09-18T02:19:27;20.70;92.60
17994;DHT22;9122;48.406;9.984;2023-09-18T02:22:12;20.70;92.70
17994;DHT22;9122;48.406;9.984;2023-09-18T02:24:56;20.80;92.50
17994;DHT22;9122;48.406;9.984;2023-09-18T02:27:41;20.70;92.90
17994;DHT22;9122;48.406;9.984;2023-09-18T02:30:26;20.70;92.60
17994;DHT22;9122;48.406;9.984;2023-09-18T02:33:10;20.60;92.50
17994;DHT22;9122;48.406;9.984;2023-09-18T02:35:55;20.60;92.60
17994;DHT22;9122;48.406;9.984;2023-09-18T02:38:40;20.60;92.90
17994;DHT22;9122;48.406;9.984;2023-09-18T02:41:24;20.60;99.90
17994;DHT22;9122;48.406;9.984;2023-09-18T02:44:08;20.50;92.80
17994;DHT22;9122;48.406;9.984;2023-09-18T02:46:53;20.50;93.20
17994;DHT22;9122;48.406;9.984;2023-09-18T02:49:37;21.00;93.00
17994;DHT22;9122;48.406;9.984;2023-09-18T02:52:21;20.50;93.10
17994;DHT22;9122;48.406;9.984;2023-09-18T02:55:06;20.50;92.90
17994;DHT22;9122;48.406;9.984;2023-09-18T02:57:50;20.40;93.00
17994;DHT22;9122;48.406;9.984;2023-09-18T03:00:34;20.50;99.90
17994;DHT22;9122;48.406;9.984;2023-09-18T03:03:19;20.50;93.40
17994;DHT22;9122;48.406;9.984;2023-09-18T03:06:04;20.40;93.60
17994;DHT22;9122;48.406;9.984;2023-09-18T03:08:49;20.40;93.50
17994;DHT22;9122;48.406;9.984;2023-09-18T03:11:33;20.50;99.90
17994;DHT22;9122;48.406;9.984;2023-09-18T03:14:17;20.40;93.40
17994;DHT22;9122;48.406;9.984;2023-09-18T03:17:01;20.50;99.90
17994;DHT22;9122;48.406;9.984;2023-09-18T03:19:48;20.40;93.70
17994;DHT22;9122;48.406;9.984;2023-09-18T03:22:33;20.30;94.00
17994;DHT22;9122;48.406;9.984;2023-09-18T03:25:17;20.30;93.80
17994;DHT22;9122;48.406;9.984;2023-09-18T03:28:02;20.30;99.90
17994;DHT22;9122;48.406;9.984;2023-09-18T03:30:46;20.30;94.00
17994;DHT22;9122;48.406;9.984;2023-09-18T03:33:31;20.30;93.80
17994;DHT22;9122;48.406;9.984;2023-09-18T03:36:15;20.20;93.80
17994;DHT22;9122;48.406;9.984;2023-09-18T03:39:00;20.20;94.30
17994;DHT22;9122;48.406;9.984;2023-09-18T03:41:44;20.00;99.90
17994;DHT22;9122;48.406;9.984;2023-09-18T03:44:28;20.20;93.90
17994;DHT22;9122;48.406;9.984;2023-09-18T03:47:12;20.20;99.90
17994;DHT22;9122;48.406;9.984;2023-09-18T03:49:57;20.20;94.00
17994;DHT22;9122;48.406;9.984;2023-09-18T03:52:41;20.10;94.00
17994;DHT22;9122;48.406;9.984;2023-09-18T03:55:26;20.20;94.10
17994;DHT22;9122;48.406;9.984;2023-09-18T03:58:10;20.20;94.30
17994;DHT22;9122;48.406;9.984;2023-09-18T04:00:55;20.10;94.40
17994;DHT22;9122;48.406;9.984;2023-09-18T04:03:39;20.10;93.80
17994;DHT22;9122;48.406;9.984;2023-09-18T04:06:24;20.00;93.80
17994;DHT22;9122;48.406;9.984;2023-09-18T04:09:08;20.00;94.10
17994;DHT22;9122;48.406;9.984;2023-09-18T04:11:53;20.00;94.20
17994;DHT22;9122;48.406;9.984;2023-09-18T04:14:39;20.00;94.40
17994;DHT22;9122;48.406;9.984;2023-09-18T04:17:24;20.00;94.20
17994;DHT22;9122;48.406;9.984;2023-09-18T04:20:09;20.00;94.10
17994;DHT22;9122;48.406;9.984;2023-09-18T04:23:23;19.80;94.10
17994;DHT22;9122;48.406;9.984;2023-09-18T04:26:09;20.00;93.70
17994;DHT22;9122;48.406;9.984;2023-09-18T04:28:54;19.90;94.50
17994;DHT22;9122;48.406;9.984;2023-09-18T04:31:39;19.90;94.40
17994;DHT22;9122;48.406;9.984;2023-09-18T04:34:23;19.90;94.60
17994;DHT22;9122;48.406;9.984;2023-09-18T04:37:08;20.00;94.00
17994;DHT22;9122;48.406;9.984;2023-09-18T04:39:52;19.80;94.70
17994;DHT22;9122;48.406;9.984;2023-09-18T04:42:38;19.80;94.80
17994;DHT22;9122;48.406;9.984;2023-09-18T04:45:27;19.80;95.40
17994;DHT22;9122;48.406;9.984;2023-09-18T04:48:11;19.80;94.80
17994;DHT22;9122;48.406;9.984;2023-09-18T04:50:56;19.80;94.90
17994;DHT22;9122;48.406;9.984;2023-09-18T04:53:41;19.80;95.20
17994;DHT22;9122;48.406;9.984;2023-09-18T04:56:25;19.70;99.90
17994;DHT22;9122;48.406;9.984;2023-09-18T04:59:10;19.80;94.80
17994;DHT22;9122;48.406;9.984;2023-09-18T05:01:55;19.80;94.70
17994;DHT22;9122;48.406;9.984;2023-09-18T05:04:39;19.80;94.70
17994;DHT22;9122;48.406;9.984;2023-09-18T05:07:23;19.80;94.60
17994;DHT22;9122;48.406;9.984;2023-09-18T05:10:07;20.00;94.80
17994;DHT22;9122;48.406;9.984;2023-09-18T05:12:51;19.80;94.70
17994;DHT22;9122;48.406;9.984;2023-09-18T05:15:42;19.90;94.70
17994;DHT22;9122;48.406;9.984;2023-09-18T05:18:26;19.80;94.50
17994;DHT22;9122;48.406;9.984;2023-09-18T05:21:10;18.30;94.10
17994;DHT22;9122;48.406;9.984;2023-09-18T05:23:55;19.70;94.60
17994;DHT22;9122;48.406;9.984;2023-09-18T05:26:39;19.70;94.60
17994;DHT22;9122;48.406;9.984;2023-09-18T05:29:24;19.70;94.70
17994;DHT22;9122;48.406;9.984;2023-09-18T05:32:08;19.70;94.70
17994;DHT22;9122;48.406;9.984;2023-09-18T05:34:52;19.70;94.60
17994;DHT22;9122;48.406;9.984;2023-09-18T05:37:37;19.70;94.80
17994;DHT22;9122;48.406;9.984;2023-09-18T05:40:22;19.70;95.30
17994;DHT22;9122;48.406;9.984;2023-09-18T05:43:06;19.70;95.00
17994;DHT22;9122;48.406;9.984;2023-09-18T05:45:51;19.70;95.30
17994;DHT22;9122;48.406;9.984;2023-09-18T05:48:36;19.70;95.30
17994;DHT22;9122;48.406;9.984;2023-09-18T05:51:20;19.70;99.90
17994;DHT22;9122;48.406;9.984;2023-09-18T05:54:05;19.70;95.00
17994;DHT22;9122;48.406;9.984;2023-09-18T05:56:49;19.70;95.10
17994;DHT22;9122;48.406;9.984;2023-09-18T05:59:33;19.70;95.10
17994;DHT22;9122;48.406;9.984;2023-09-18T06:02:17;19.70;95.20
17994;DHT22;9122;48.406;9.984;2023-09-18T06:05:02;19.70;95.30
17994;DHT22;9122;48.406;9.984;2023-09-18T06:07:48;19.70;95.10
17994;DHT22;9122;48.406;9.984;2023-09-18T06:10:33;19.70;95.00
17994;DHT22;9122;48.406;9.984;2023-09-18T06:13:18;19.80;95.00
17994;DHT22;9122;48.406;9.984;2023-09-18T06:16:02;19.70;94.70
17994;DHT22;9122;48.406;9.984;2023-09-18T06:18:51;19.70;94.80
17994;DHT22;9122;48.406;9.984;2023-09-18T06:21:36;19.80;94.80
17994;DHT22;9122;48.406;9.984;2023-09-18T06:24:20;19.80;94.70
17994;DHT22;9122;48.406;9.984;2023-09-18T06:27:06;19.80;94.90
17994;DHT22;9122;48.406;9.984;2023-09-18T06:29:51;19.80;95.20
17994;DHT22;9122;48.406;9.984;2023-09-18T06:32:35;20.20;95.10
17994;DHT22;9122;48.406;9.984;2023-09-18T06:35:21;19.80;95.40
17994;DHT22;9122;48.406;9.984;2023-09-18T06:38:05;19.80;95.60
17994;DHT22;9122;48.406;9.984;2023-09-18T06:40:50;19.80;95.60
17994;DHT22;9122;48.406;9.984;2023-09-18T06:43:35;19.80;95.50
17994;DHT22;9122;48.406;9.984;2023-09-18T06:46:20;19.70;95.10
17994;DHT22;9122;48.406;9.984;2023-09-18T06:49:04;19.90;95.40
17994;DHT22;9122;48.406;9.984;2023-09-18T06:51:49;19.90;95.40
17994;DHT22;9122;48.406;9.984;2023-09-18T06:54:33;20.50;95.60
17994;DHT22;9122;48.406;9.984;2023-09-18T06:57:18;20.10;95.30
17994;DHT22;9122;48.406;9.984;2023-09-18T07:00:05;20.30;95.30
17994;DHT22;9122;48.406;9.984;2023-09-18T07:02:50;20.40;94.80
17994;DHT22;9122;48.406;9.984;2023-09-18T07:05:34;20.40;94.70
17994;DHT22;9122;48.406;9.984;2023-09-18T07:08:19;20.40;94.80
17994;DHT22;9122;48.406;9.984;2023-09-18T07:11:07;20.30;95.00
17994;DHT22;9122;48.406;9.984;2023-09-18T07:13:51;20.20;94.60
17994;DHT22;9122;48.406;9.984;2023-09-18T07:16:36;20.30;95.00
17994;DHT22;9122;48.406;9.984;2023-09-18T07:19:21;20.30;95.10
17994;DHT22;9122;48.406;9.984;2023-09-18T07:22:05;20.30;94.80
17994;DHT22;9122;48.406;9.984;2023-09-18T07:24:49;20.30;94.70
17994;DHT22;9122;48.406;9.984;2023-09-18T07:27:33;20.40;94.70
17994;DHT22;9122;48.406;9.984;2023-09-18T07:30:17;20.40;94.80
17994;DHT22;9122;48.406;9.984;2023-09-18T07:33:03;20.40;95.00
17994;DHT22;9122;48.406;9.984;2023-09-18T07:35:49;20.40;94.80
17994;DHT22;9122;48.406;9.984;2023-09-18T07:38:35;20.50;94.80
17994;DHT22;9122;48.406;9.984;2023-09-18T07:41:20;20.40;94.80
17994;DHT22;9122;48.406;9.984;2023-09-18T07:44:06;20.40;95.20
17994;DHT22;9122;48.406;9.984;2023-09-18T07:46:50;20.40;94.60
17994;DHT22;9122;48.406;9.984;2023-09-18T07:49:34;20.40;94.50
17994;DHT22;9122;48.406;9.984;2023-09-18T07:52:19;20.40;94.70
17994;DHT22;9122;48.406;9.984;2023-09-18T07:55:03;20.40;95.10
17994;DHT22;9122;48.406;9.984;2023-09-18T07:57:48;20.50;95.10
17994;DHT22;9122;48.406;9.984;2023-09-18T08:00:33;20.60;99.90
17994;DHT22;9122;48.406;9.984;2023-09-18T08:08:48;20.50;93.90
17994;DHT22;9122;48.406;9.984;2023-09-18T08:11:32;20.40;94.60
17994;DHT22;9122;48.406;9.984;2023-09-18T08:14:17;20.50;95.20
17994;DHT22;9122;48.406;9.984;2023-09-18T08:17:02;20.50;95.00
17994;DHT22;9122;48.406;9.984;2023-09-18T08:19:52;20.50;94.60
17994;DHT22;9122;48.406;9.984;2023-09-18T08:22:37;20.50;95.30
17994;DHT22;9122;48.406;9.984;2023-09-18T08:25:22;20.50;95.10
17994;DHT22;9122;48.406;9.984;2023-09-18T08:28:06;20.50;95.20
17994;DHT22;9122;48.406;9.984;2023-09-18T08:30:51;20.50;95.10
17994;DHT22;9122;48.406;9.984;2023-09-18T08:33:36;20.60;95.20
17994;DHT22;9122;48.406;9.984;2023-09-18T08:36:20;20.50;95.10
17994;DHT22;9122;48.406;9.984;2023-09-18T08:39:06;20.60;94.80
17994;DHT22;9122;48.406;9.984;2023-09-18T08:41:51;20.60;94.70
17994;DHT22;9122;48.406;9.984;2023-09-18T08:44:39;20.60;94.70
17994;DHT22;9122;48.406;9.984;2023-09-18T08:47:25;20.60;94.80
17994;DHT22;9122;48.406;9.984;2023-09-18T08:50:10;20.70;94.90
17994;DHT22;9122;48.406;9.984;2023-09-18T08:52:55;20.70;95.10
17994;DHT22;9122;48.406;9.984;2023-09-18T08:55:40;20.70;95.60
17994;DHT22;9122;48.406;9.984;2023-09-18T08:58:26;20.70;95.20
17994;DHT22;9122;48.406;9.984;2023-09-18T09:01:11;21.10;95.40
17994;DHT22;9122;48.406;9.984;2023-09-18T09:03:56;20.80;95.00
17994;DHT22;9122;48.406;9.984;2023-09-18T09:06:41;20.80;95.00
17994;DHT22;9122;48.406;9.984;2023-09-18T09:09:26;20.80;94.90
17994;DHT22;9122;48.406;9.984;2023-09-18T09:12:14;20.90;94.50
17994;DHT22;9122;48.406;9.984;2023-09-18T09:15:03;20.90;94.50
17994;DHT22;9122;48.406;9.984;2023-09-18T09:17:49;20.90;94.40
17994;DHT22;9122;48.406;9.984;2023-09-18T09:20:34;20.90;93.90
17994;DHT22;9122;48.406;9.984;2023-09-18T09:23:19;20.90;94.90
17994;DHT22;9122;48.406;9.984;2023-09-18T09:26:15;21.00;93.50
17994;DHT22;9122;48.406;9.984;2023-09-18T09:29:18;21.00;94.60
17994;DHT22;9122;48.406;9.984;2023-09-18T09:32:17;21.10;99.90
17994;DHT22;9122;48.406;9.984;2023-09-18T09:35:02;21.20;94.70
17994;DHT22;9122;48.406;9.984;2023-09-18T09:37:51;21.10;94.70
17994;DHT22;9122;48.406;9.984;2023-09-18T09:40:41;21.10;94.80
17994;DHT22;9122;48.406;9.984;2023-09-18T09:43:28;21.20;99.90
17994;DHT22;9122;48.406;9.984;2023-09-18T09:46:17;21.20;99.90
17994;DHT22;9122;48.406;9.984;2023-09-18T09:49:06;21.10;94.80
17994;DHT22;9122;48.406;9.984;2023-09-18T09:51:50;21.10;99.90
17994;DHT22;9122;48.406;9.984;2023-09-18T09:54:35;21.10;94.50
17994;DHT22;9122;48.406;9.984;2023-09-18T09:57:21;21.20;94.70
17994;DHT22;9122;48.406;9.984;2023-09-18T10:00:06;21.20;94.40
17994;DHT22;9122;48.406;9.984;2023-09-18T10:03:17;21.10;99.90
17994;DHT22;9122;48.406;9.984;2023-09-18T10:06:02;21.20;94.60
17994;DHT22;9122;48.406;9.984;2023-09-18T10:08:48;21.20;93.30
17994;DHT22;9122;48.406;9.984;2023-09-18T10:11:34;21.20;94.50
17994;DHT22;9122;48.406;9.984;2023-09-18T10:14:29;21.20;99.90
17994;DHT22;9122;48.406;9.984;2023-09-18T10:17:19;21.20;95.20
17994;DHT22;9122;48.406;9.984;2023-09-18T10:20:07;21.40;95.30
17994;DHT22;9122;48.406;9.984;2023-09-18T10:23:02;21.20;95.20
17994;DHT22;9122;48.406;9.984;2023-09-18T10:25:50;21.20;95.20
17994;DHT22;9122;48.406;9.984;2023-09-18T10:28:36;21.20;95.30
17994;DHT22;9122;48.406;9.984;2023-09-18T10:31:22;21.20;95.50
17994;DHT22;9122;48.406;9.984;2023-09-18T10:34:08;21.20;95.10
17994;DHT22;9122;48.406;9.984;2023-09-18T10:36:54;21.20;94.30
17994;DHT22;9122;48.406;9.984;2023-09-18T10:39:39;21.20;95.80
17994;DHT22;9122;48.406;9.984;2023-09-18T10:42:27;21.20;95.90
17994;DHT22;9122;48.406;9.984;2023-09-18T10:45:12;21.10;95.60
17994;DHT22;9122;48.406;9.984;2023-09-18T10:47:59;21.00;99.90
17994;DHT22;9122;48.406;9.984;2023-09-18T10:50:43;21.00;95.60
17994;DHT22;9122;48.406;9.984;2023-09-18T10:53:31;20.90;95.70
17994;DHT22;9122;48.406;9.984;2023-09-18T10:56:16;20.90;95.60
17994;DHT22;9122;48.406;9.984;2023-09-18T10:59:02;20.90;94.50
17994;DHT22;9122;48.406;9.984;2023-09-18T11:01:47;20.80;95.90
17994;DHT22;9122;48.406;9.984;2023-09-18T11:04:32;20.80;96.20
17994;DHT22;9122;48.406;9.984;2023-09-18T11:07:22;20.70;96.30
17994;DHT22;9122;48.406;9.984;2023-09-18T11:10:25;20.80;99.90
17994;DHT22;9122;48.406;9.984;2023-09-18T11:13:10;20.70;96.60
17994;DHT22;9122;48.406;9.984;2023-09-18T11:16:02;20.60;96.90
17994;DHT22;9122;48.406;9.984;2023-09-18T11:18:50;20.60;96.90
17994;DHT22;9122;48.406;9.984;2023-09-18T11:21:36;20.60;97.20
17994;DHT22;9122;48.406;9.984;2023-09-18T11:24:21;20.40;99.90
17994;DHT22;9122;48.406;9.984;2023-09-18T11:27:07;20.60;97.50
17994;DHT22;9122;48.406;9.984;2023-09-18T11:29:54;20.40;97.20
17994;DHT22;9122;48.406;9.984;2023-09-18T11:32:40;20.50;97.70
17994;DHT22;9122;48.406;9.984;2023-09-18T11:35:25;20.50;97.70
17994;DHT22;9122;48.406;9.984;2023-09-18T11:38:10;20.40;97.20
17994;DHT22;9122;48.406;9.984;2023-09-18T11:40:55;20.40;96.10
17994;DHT22;9122;48.406;9.984;2023-09-18T11:43:41;20.30;97.70
17994;DHT22;9122;48.406;9.984;2023-09-18T11:46:26;20.30;97.40
17994;DHT22;9122;48.406;9.984;2023-09-18T11:49:15;20.30;98.00
17994;DHT22;9122;48.406;9.984;2023-09-18T11:52:06;20.30;97.90
17994;DHT22;9122;48.406;9.984;2023-09-18T11:54:52;20.30;98.00
17994;DHT22;9122;48.406;9.984;2023-09-18T11:57:37;20.30;97.80
17994;DHT22;9122;48.406;9.984;2023-09-18T12:00:22;20.20;98.00
17994;DHT22;9122;48.406;9.984;2023-09-18T12:03:18;20.20;98.20
17994;DHT22;9122;48.406;9.984;2023-09-18T12:06:09;20.20;99.90
17994;DHT22;9122;48.406;9.984;2023-09-18T12:08:57;20.20;99.90
17994;DHT22;9122;48.406;9.984;2023-09-18T12:11:42;20.10;97.40
17994;DHT22;9122;48.406;9.984;2023-09-18T12:17:15;20.10;96.70
17994;DHT22;9122;48.406;9.984;2023-09-18T12:20:00;20.10;96.80
17994;DHT22;9122;48.406;9.984;2023-09-18T12:22:48;20.10;97.50
17994;DHT22;9122;48.406;9.984;2023-09-18T12:25:33;20.10;98.00
17994;DHT22;9122;48.406;9.984;2023-09-18T12:28:17;20.10;96.90
17994;DHT22;9122;48.406;9.984;2023-09-18T12:31:03;20.00;97.90
17994;DHT22;9122;48.406;9.984;2023-09-18T12:33:53;20.10;99.90
17994;DHT22;9122;48.406;9.984;2023-09-18T12:36:37;20.00;99.90
17994;DHT22;9122;48.406;9.984;2023-09-18T12:39:21;20.00;97.60
17994;DHT22;9122;48.406;9.984;2023-09-18T12:42:06;19.90;97.70
17994;DHT22;9122;48.406;9.984;2023-09-18T12:44:50;19.90;97.80
17994;DHT22;9122;48.406;9.984;2023-09-18T12:47:35;20.00;98.10
17994;DHT22;9122;48.406;9.984;2023-09-18T12:50:24;19.90;98.10
17994;DHT22;9122;48.406;9.984;2023-09-18T12:53:10;19.90;97.80
17994;DHT22;9122;48.406;9.984;2023-09-18T12:56:13;19.90;98.30
17994;DHT22;9122;48.406;9.984;2023-09-18T12:58:58;19.90;97.70
17994;DHT22;9122;48.406;9.984;2023-09-18T13:01:46;19.80;99.90
17994;DHT22;9122;48.406;9.984;2023-09-18T13:04:36;19.90;98.90
17994;DHT22;9122;48.406;9.984;2023-09-18T13:07:21;19.90;98.90
17994;DHT22;9122;48.406;9.984;2023-09-18T13:10:07;19.80;99.20
17994;DHT22;9122;48.406;9.984;2023-09-18T13:15:39;19.90;97.60
17994;DHT22;9122;48.406;9.984;2023-09-18T13:18:23;20.10;98.60
17994;DHT22;9122;48.406;9.984;2023-09-18T13:21:14;19.80;98.70
17994;DHT22;9122;48.406;9.984;2023-09-18T13:24:04;19.80;98.70
17994;DHT22;9122;48.406;9.984;2023-09-18T13:26:49;19.80;99.30
17994;DHT22;9122;48.406;9.984;2023-09-18T13:29:33;19.80;98.60
17994;DHT22;9122;48.406;9.984;2023-09-18T13:32:17;19.80;98.90
17994;DHT22;9122;48.406;9.984;2023-09-18T13:35:03;19.80;98.60
17994;DHT22;9122;48.406;9.984;2023-09-18T13:37:51;19.80;98.80
17994;DHT22;9122;48.406;9.984;2023-09-18T13:40:36;19.80;98.40
17994;DHT22;9122;48.406;9.984;2023-09-18T13:43:21;19.80;98.90
17994;DHT22;9122;48.406;9.984;2023-09-18T13:46:06;19.80;98.80
17994;DHT22;9122;48.406;9.984;2023-09-18T13:48:51;19.80;98.60
17994;DHT22;9122;48.406;9.984;2023-09-18T13:51:35;19.80;98.00
17994;DHT22;9122;48.406;9.984;2023-09-18T13:54:20;19.80;98.80
17994;DHT22;9122;48.406;9.984;2023-09-18T13:57:04;19.90;99.90
17994;DHT22;9122;48.406;9.984;2023-09-18T13:59:50;19.80;99.90
17994;DHT22;9122;48.406;9.984;2023-09-18T14:02:35;19.80;98.60
17994;DHT22;9122;48.406;9.984;2023-09-18T14:05:19;19.80;99.90
17994;DHT22;9122;48.406;9.984;2023-09-18T14:08:04;19.80;98.10
17994;DHT22;9122;48.406;9.984;2023-09-18T14:10:49;19.90;98.50
17994;DHT22;9122;48.406;9.984;2023-09-18T14:13:34;19.80;98.30
17994;DHT22;9122;48.406;9.984;2023-09-18T14:16:19;19.80;98.50
17994;DHT22;9122;48.406;9.984;2023-09-18T14:19:03;19.80;98.20
17994;DHT22;9122;48.406;9.984;2023-09-18T14:21:47;19.90;97.80
17994;DHT22;9122;48.406;9.984;2023-09-18T14:24:33;19.90;97.80
17994;DHT22;9122;48.406;9.984;2023-09-18T14:27:21;19.90;97.50
17994;DHT22;9122;48.406;9.984;2023-09-18T14:30:06;19.90;97.60
17994;DHT22;9122;48.406;9.984;2023-09-18T14:32:50;20.10;99.90
17994;DHT22;9122;48.406;9.984;2023-09-18T14:35:34;20.00;98.00
17994;DHT22;9122;48.406;9.984;2023-09-18T14:38:20;20.00;98.20
17994;DHT22;9122;48.406;9.984;2023-09-18T14:41:06;20.00;98.00
17994;DHT22;9122;48.406;9.984;2023-09-18T14:43:51;20.00;98.10
17994;DHT22;9122;48.406;9.984;2023-09-18T14:46:37;20.30;98.10
17994;DHT22;9122;48.406;9.984;2023-09-18T14:49:21;20.10;97.90
17994;DHT22;9122;48.406;9.984;2023-09-18T14:52:06;20.10;99.90
17994;DHT22;9122;48.406;9.984;2023-09-18T14:54:51;20.00;98.10
17994;DHT22;9122;48.406;9.984;2023-09-18T14:57:35;20.10;98.20
17994;DHT22;9122;48.406;9.984;2023-09-18T15:00:20;20.20;97.70
17994;DHT22;9122;48.406;9.984;2023-09-18T15:03:04;20.10;97.70
17994;DHT22;9122;48.406;9.984;2023-09-18T15:05:49;20.20;99.90
17994;DHT22;9122;48.406;9.984;2023-09-18T15:08:35;20.20;99.90
17994;DHT22;9122;48.406;9.984;2023-09-18T15:11:19;20.10;97.20
17994;DHT22;9122;48.406;9.984;2023-09-18T15:14:04;20.10;99.90
17994;DHT22;9122;48.406;9.984;2023-09-18T15:16:49;19.90;97.40
17994;DHT22;9122;48.406;9.984;2023-09-18T15:19:33;20.10;96.90
17994;DHT22;9122;48.406;9.984;2023-09-18T15:22:18;20.10;96.70
17994;DHT22;9122;48.406;9.984;2023-09-18T15:25:02;20.30;97.30
17994;DHT22;9122;48.406;9.984;2023-09-18T15:27:47;20.10;97.20
17994;DHT22;9122;48.406;9.984;2023-09-18T15:30:31;20.20;99.90
17994;DHT22;9122;48.406;9.984;2023-09-18T15:33:16;20.20;97.40
17994;DHT22;9122;48.406;9.984;2023-09-18T15:36:03;20.10;96.50
17994;DHT22;9122;48.406;9.984;2023-09-18T15:38:48;20.30;99.90
17994;DHT22;9122;48.406;9.984;2023-09-18T15:41:33;20.10;97.10
17994;DHT22;9122;48.406;9.984;2023-09-18T15:44:17;20.20;96.30
17994;DHT22;9122;48.406;9.984;2023-09-18T15:47:02;20.20;99.90
17994;DHT22;9122;48.406;9.984;2023-09-18T15:49:48;20.20;97.00
17994;DHT22;9122;48.406;9.984;2023-09-18T15:52:32;21.10;97.00
17994;DHT22;9122;48.406;9.984;2023-09-18T15:55:17;20.20;96.80
17994;DHT22;9122;48.406;9.984;2023-09-18T15:58:02;20.20;96.30
17994;DHT22;9122;48.406;9.984;2023-09-18T16:00:47;20.20;96.30
17994;DHT22;9122;48.406;9.984;2023-09-18T16:03:32;20.20;96.60
17994;DHT22;9122;48.406;9.984;2023-09-18T16:06:17;20.20;96.10
17994;DHT22;9122;48.406;9.984;2023-09-18T16:09:02;20.30;99.90
17994;DHT22;9122;48.406;9.984;2023-09-18T16:11:50;20.20;96.20
17994;DHT22;9122;48.406;9.984;2023-09-18T16:14:34;20.20;95.70
17994;DHT22;9122;48.406;9.984;2023-09-18T16:17:19;20.20;95.50
17994;DHT22;9122;48.406;9.984;2023-09-18T16:20:04;20.30;95.70
17994;DHT22;9122;48.406;9.984;2023-09-18T16:22:49;20.30;95.20
17994;DHT22;9122;48.406;9.984;2023-09-18T16:25:33;20.20;95.30
17994;DHT22;9122;48.406;9.984;2023-09-18T16:28:18;20.20;95.10
17994;DHT22;9122;48.406;9.984;2023-09-18T16:31:03;20.20;95.30
17994;DHT22;9122;48.406;9.984;2023-09-18T16:33:51;20.20;95.20
17994;DHT22;9122;48.406;9.984;2023-09-18T16:36:36;20.20;95.10
17994;DHT22;9122;48.406;9.984;2023-09-18T16:39:20;20.20;95.10
17994;DHT22;9122;48.406;9.984;2023-09-18T16:42:07;20.20;95.40
17994;DHT22;9122;48.406;9.984;2023-09-18T16:44:52;20.20;95.40
17994;DHT22;9122;48.406;9.984;2023-09-18T16:47:37;20.20;95.40
17994;DHT22;9122;48.406;9.984;2023-09-18T16:50:22;20.20;95.50
17994;DHT22;9122;48.406;9.984;2023-09-18T16:53:07;20.20;95.70
17994;DHT22;9122;48.406;9.984;2023-09-18T16:55:52;20.20;95.40
17994;DHT22;9122;48.406;9.984;2023-09-18T16:58:37;20.20;95.70
17994;DHT22;9122;48.406;9.984;2023-09-18T17:01:21;20.20;95.40
17994;DHT22;9122;48.406;9.984;2023-09-18T17:04:06;20.20;99.90
17994;DHT22;9122;48.406;9.984;2023-09-18T17:06:50;20.00;99.90
17994;DHT22;9122;48.406;9.984;2023-09-18T17:09:36;20.20;95.70
17994;DHT22;9122;48.406;9.984;2023-09-18T17:12:20;20.20;95.80
17994;DHT22;9122;48.406;9.984;2023-09-18T17:15:06;20.10;95.70
17994;DHT22;9122;48.406;9.984;2023-09-18T17:17:52;20.10;95.80
17994;DHT22;9122;48.406;9.984;2023-09-18T17:20:42;20.10;96.00
17994;DHT22;9122;48.406;9.984;2023-09-18T17:23:26;20.10;95.90
17994;DHT22;9122;48.406;9.984;2023-09-18T17:26:11;20.10;95.90
17994;DHT22;9122;48.406;9.984;2023-09-18T17:28:55;20.10;95.70
17994;DHT22;9122;48.406;9.984;2023-09-18T17:31:40;20.10;95.80
17994;DHT22;9122;48.406;9.984;2023-09-18T17:34:24;20.10;95.80
17994;DHT22;9122;48.406;9.984;2023-09-18T17:37:11;20.20;99.90
17994;DHT22;9122;48.406;9.984;2023-09-18T17:39:56;20.10;99.90
17994;DHT22;9122;48.406;9.984;2023-09-18T17:42:40;20.00;96.20
17994;DHT22;9122;48.406;9.984;2023-09-18T17:45:25;20.00;96.00
17994;DHT22;9122;48.406;9.984;2023-09-18T17:48:10;20.00;96.00
17994;DHT22;9122;48.406;9.984;2023-09-18T17:50:54;20.10;99.90
17994;DHT22;9122;48.406;9.984;2023-09-18T17:53:42;20.00;99.90